Aalborg, Denmark

5:02 AM CEST on July 05, 2015 (GMT +0200)
Goegeurtvej | | Change Station
CLOSE
Current Station
Personal Weather Station
Location: Vodskov,
Elevation: 33 ft
Nearby Weather Stations

Elev 33 ft 57.11 °N, 10.01 °E | Updated 1 minute ago

Mist
Mist
61.7 °F
Feels Like 61.7 °F
N
0.2
Wind Variable Wind from West
Gusts 3.1 mph

Today
High -- | Low -- °F
--% Chance of Precip.
Yesterday
High -- | Low -- °F
Precip. -- in
4:33 AM 10:15 PM
Waning Gibbous, 88% visible
Pressure 30.04 in
Visibility 1.2 miles
Clouds
Dew Point 60 °F
Humidity 94%
Rainfall -999.00 in
Snow Depth Not available.
UV Not available.
Pollen Not available.
Air Quality Not available.
Flu Activity Not available.
METAR EKYT 050250Z 09005KT 2000 BR NSC 16/16 Q1017 RMK FEW095

More Conditions Fewer Conditions

Pressure 30.04 in
Visibility 1.2 miles
Clouds
Dew Point 60 °F
Humidity 94%
Rainfall -999.00 in
Snow Depth Not available.
UV Not available.
Pollen Not available.
Air Quality Not available.
Flu Activity Not available.
METAR EKYT 050250Z 09005KT 2000 BR NSC 16/16 Q1017 RMK FEW095

More Conditions Fewer Conditions

10-Day Weather Forecast

×

Almanac

Astronomy

Jul. 05, 2015 Rise Set
Actual Time
Civil Twilight
Nautical Twilight
Astronomical Twilight
Moon
Length of Visible Light
Length of Day
Tomorrow will be .
, % of the Moon is Illuminated

Today's Extremes

Country Highs Country Lows

Community

WunderPhotos

Upload Photos

1,835,174 photos uploaded!

WunderBlogs® & News

Nearby

Air Quality

  Air Quality AQ Index Pollutant
Not available.

Snow Depth

Station Depth Elevation

Earthquake Activity

City Distance Mag. Time & Date
Minimum magnitude displayed is 2.5.

Coastal Water Temperatures

Place Temperature

Stations

Nearby Weather Stations

Station Location Temp. Windchill Dew Point Humidity Wind Precip. Elev Updated Type